sensor_id;sensor_type;location;lat;lon;timestamp;P1;durP1;ratioP1;P2;durP2;ratioP2
49590;SDS011;35496;-21.974;-46.800;2024-02-26T00:00:56;4.68;;;2.60;;
49590;SDS011;35496;-21.974;-46.800;2024-02-26T00:03:23;2.45;;;2.25;;
49590;SDS011;35496;-21.974;-46.800;2024-02-26T00:05:49;2.22;;;2.00;;
49590;SDS011;35496;-21.974;-46.800;2024-02-26T00:08:16;5.72;;;2.10;;
49590;SDS011;35496;-21.974;-46.800;2024-02-26T00:10:43;3.10;;;2.08;;
49590;SDS011;35496;-21.974;-46.800;2024-02-26T00:13:09;2.00;;;1.90;;
49590;SDS011;35496;-21.974;-46.800;2024-02-26T00:15:36;5.10;;;2.40;;
49590;SDS011;35496;-21.974;-46.800;2024-02-26T00:18:02;2.28;;;2.08;;
49590;SDS011;35496;-21.974;-46.800;2024-02-26T00:20:29;3.67;;;2.17;;
49590;SDS011;35496;-21.974;-46.800;2024-02-26T00:22:55;2.42;;;2.25;;
49590;SDS011;35496;-21.974;-46.800;2024-02-26T00:25:22;2.53;;;1.73;;
49590;SDS011;35496;-21.974;-46.800;2024-02-26T00:27:49;5.07;;;2.30;;
49590;SDS011;35496;-21.974;-46.800;2024-02-26T00:30:15;3.10;;;2.20;;
49590;SDS011;35496;-21.974;-46.800;2024-02-26T00:32:42;3.80;;;2.53;;
49590;SDS011;35496;-21.974;-46.800;2024-02-26T00:35:08;2.35;;;2.15;;
49590;SDS011;35496;-21.974;-46.800;2024-02-26T00:37:35;3.53;;;2.38;;
49590;SDS011;35496;-21.974;-46.800;2024-02-26T00:40:02;3.40;;;1.98;;
49590;SDS011;35496;-21.974;-46.800;2024-02-26T00:42:29;3.60;;;3.00;;
49590;SDS011;35496;-21.974;-46.800;2024-02-26T00:44:55;4.45;;;2.17;;
49590;SDS011;35496;-21.974;-46.800;2024-02-26T00:47:22;2.80;;;1.85;;
49590;SDS011;35496;-21.974;-46.800;2024-02-26T00:49:48;3.63;;;2.05;;
49590;SDS011;35496;-21.974;-46.800;2024-02-26T00:52:15;1.98;;;1.88;;
49590;SDS011;35496;-21.974;-46.800;2024-02-26T00:54:41;2.50;;;2.13;;
49590;SDS011;35496;-21.974;-46.800;2024-02-26T00:57:08;2.30;;;2.10;;
49590;SDS011;35496;-21.974;-46.800;2024-02-26T00:59:35;2.65;;;2.40;;
49590;SDS011;35496;-21.974;-46.800;2024-02-26T01:02:02;2.72;;;2.50;;
49590;SDS011;35496;-21.974;-46.800;2024-02-26T01:04:31;3.10;;;2.72;;
49590;SDS011;35496;-21.974;-46.800;2024-02-26T01:06:57;3.08;;;2.70;;
49590;SDS011;35496;-21.974;-46.800;2024-02-26T01:09:24;2.47;;;2.28;;
49590;SDS011;35496;-21.974;-46.800;2024-02-26T01:11:50;3.63;;;2.35;;
49590;SDS011;35496;-21.974;-46.800;2024-02-26T01:14:17;10.77;;;3.15;;
49590;SDS011;35496;-21.974;-46.800;2024-02-26T01:16:44;2.45;;;2.25;;
49590;SDS011;35496;-21.974;-46.800;2024-02-26T01:19:10;3.25;;;2.53;;
49590;SDS011;35496;-21.974;-46.800;2024-02-26T01:21:37;2.92;;;2.63;;
49590;SDS011;35496;-21.974;-46.800;2024-02-26T01:24:03;2.50;;;2.30;;
49590;SDS011;35496;-21.974;-46.800;2024-02-26T01:26:30;3.10;;;1.80;;
49590;SDS011;35496;-21.974;-46.800;2024-02-26T01:28:57;16.15;;;3.05;;
49590;SDS011;35496;-21.974;-46.800;2024-02-26T01:31:23;3.13;;;2.83;;
49590;SDS011;35496;-21.974;-46.800;2024-02-26T01:33:50;3.63;;;2.60;;
49590;SDS011;35496;-21.974;-46.800;2024-02-26T01:36:16;2.72;;;2.47;;
49590;SDS011;35496;-21.974;-46.800;2024-02-26T01:38:43;7.53;;;2.08;;
49590;SDS011;35496;-21.974;-46.800;2024-02-26T01:41:09;3.80;;;1.98;;
49590;SDS011;35496;-21.974;-46.800;2024-02-26T01:43:36;2.45;;;1.80;;
49590;SDS011;35496;-21.974;-46.800;2024-02-26T01:46:03;2.35;;;2.05;;
49590;SDS011;35496;-21.974;-46.800;2024-02-26T01:48:29;3.70;;;3.28;;
49590;SDS011;35496;-21.974;-46.800;2024-02-26T01:50:56;4.47;;;2.97;;
49590;SDS011;35496;-21.974;-46.800;2024-02-26T01:53:23;2.60;;;2.10;;
49590;SDS011;35496;-21.974;-46.800;2024-02-26T01:55:50;3.20;;;2.90;;
49590;SDS011;35496;-21.974;-46.800;2024-02-26T01:58:16;3.83;;;2.85;;
49590;SDS011;35496;-21.974;-46.800;2024-02-26T02:00:43;2.75;;;2.53;;
49590;SDS011;35496;-21.974;-46.800;2024-02-26T02:03:10;2.35;;;2.25;;
49590;SDS011;35496;-21.974;-46.800;2024-02-26T02:05:36;2.83;;;2.15;;
49590;SDS011;35496;-21.974;-46.800;2024-02-26T02:08:08;2.58;;;2.38;;
49590;SDS011;35496;-21.974;-46.800;2024-02-26T02:10:37;2.97;;;2.67;;
49590;SDS011;35496;-21.974;-46.800;2024-02-26T02:13:04;2.45;;;2.35;;
49590;SDS011;35496;-21.974;-46.800;2024-02-26T02:15:30;3.30;;;2.85;;
49590;SDS011;35496;-21.974;-46.800;2024-02-26T02:17:57;6.43;;;3.22;;
49590;SDS011;35496;-21.974;-46.800;2024-02-26T02:20:41;2.80;;;2.10;;
49590;SDS011;35496;-21.974;-46.800;2024-02-26T02:23:08;2.78;;;2.47;;
49590;SDS011;35496;-21.974;-46.800;2024-02-26T02:25:35;3.38;;;2.25;;
49590;SDS011;35496;-21.974;-46.800;2024-02-26T02:28:01;2.92;;;2.58;;
49590;SDS011;35496;-21.974;-46.800;2024-02-26T02:30:29;2.75;;;2.38;;
49590;SDS011;35496;-21.974;-46.800;2024-02-26T02:32:56;2.17;;;2.03;;
49590;SDS011;35496;-21.974;-46.800;2024-02-26T02:35:24;3.42;;;2.28;;
49590;SDS011;35496;-21.974;-46.800;2024-02-26T02:37:51;2.47;;;2.00;;
49590;SDS011;35496;-21.974;-46.800;2024-02-26T02:40:18;3.67;;;2.15;;
49590;SDS011;35496;-21.974;-46.800;2024-02-26T02:42:45;2.22;;;2.10;;
49590;SDS011;35496;-21.974;-46.800;2024-02-26T02:45:11;2.28;;;2.17;;
49590;SDS011;35496;-21.974;-46.800;2024-02-26T02:53:47;5.43;;;2.05;;
49590;SDS011;35496;-21.974;-46.800;2024-02-26T02:56:14;1.90;;;1.80;;
49590;SDS011;35496;-21.974;-46.800;2024-02-26T02:58:40;2.75;;;1.92;;
49590;SDS011;35496;-21.974;-46.800;2024-02-26T03:01:07;1.92;;;1.83;;
49590;SDS011;35496;-21.974;-46.800;2024-02-26T03:03:33;3.53;;;2.13;;
49590;SDS011;35496;-21.974;-46.800;2024-02-26T03:06:02;3.13;;;2.80;;
49590;SDS011;35496;-21.974;-46.800;2024-02-26T03:08:29;2.78;;;2.58;;
49590;SDS011;35496;-21.974;-46.800;2024-02-26T03:10:55;7.63;;;3.20;;
49590;SDS011;35496;-21.974;-46.800;2024-02-26T03:13:24;5.05;;;4.60;;
49590;SDS011;35496;-21.974;-46.800;2024-02-26T03:15:50;2.72;;;2.53;;
49590;SDS011;35496;-21.974;-46.800;2024-02-26T03:18:17;3.20;;;2.95;;
49590;SDS011;35496;-21.974;-46.800;2024-02-26T03:20:43;2.53;;;2.35;;
49590;SDS011;35496;-21.974;-46.800;2024-02-26T03:23:10;4.00;;;3.35;;
49590;SDS011;35496;-21.974;-46.800;2024-02-26T03:25:38;3.15;;;2.92;;
49590;SDS011;35496;-21.974;-46.800;2024-02-26T03:28:05;8.00;;;3.30;;
49590;SDS011;35496;-21.974;-46.800;2024-02-26T03:30:31;4.00;;;2.67;;
49590;SDS011;35496;-21.974;-46.800;2024-02-26T03:32:58;3.78;;;2.80;;
49590;SDS011;35496;-21.974;-46.800;2024-02-26T03:35:24;3.97;;;3.30;;
49590;SDS011;35496;-21.974;-46.800;2024-02-26T03:37:51;5.75;;;3.28;;
49590;SDS011;35496;-21.974;-46.800;2024-02-26T03:40:17;5.07;;;3.10;;
49590;SDS011;35496;-21.974;-46.800;2024-02-26T03:42:45;6.07;;;2.42;;
49590;SDS011;35496;-21.974;-46.800;2024-02-26T03:45:11;3.78;;;2.92;;
49590;SDS011;35496;-21.974;-46.800;2024-02-26T03:47:38;3.15;;;2.65;;
49590;SDS011;35496;-21.974;-46.800;2024-02-26T03:50:05;4.43;;;3.35;;
49590;SDS011;35496;-21.974;-46.800;2024-02-26T03:52:33;3.28;;;2.92;;
49590;SDS011;35496;-21.974;-46.800;2024-02-26T03:54:59;2.90;;;2.30;;
49590;SDS011;35496;-21.974;-46.800;2024-02-26T03:57:26;5.32;;;2.47;;
49590;SDS011;35496;-21.974;-46.800;2024-02-26T03:59:52;2.58;;;2.08;;
49590;SDS011;35496;-21.974;-46.800;2024-02-26T04:02:19;2.55;;;2.42;;
49590;SDS011;35496;-21.974;-46.800;2024-02-26T04:04:46;3.50;;;2.40;;
49590;SDS011;35496;-21.974;-46.800;2024-02-26T04:07:13;5.70;;;2.58;;
49590;SDS011;35496;-21.974;-46.800;2024-02-26T04:09:39;3.55;;;2.58;;
49590;SDS011;35496;-21.974;-46.800;2024-02-26T04:12:06;4.22;;;2.83;;
49590;SDS011;35496;-21.974;-46.800;2024-02-26T04:14:33;3.10;;;2.90;;
49590;SDS011;35496;-21.974;-46.800;2024-02-26T04:16:59;3.08;;;2.70;;
49590;SDS011;35496;-21.974;-46.800;2024-02-26T04:19:26;2.92;;;2.60;;
49590;SDS011;35496;-21.974;-46.800;2024-02-26T04:21:52;5.80;;;3.20;;
49590;SDS011;35496;-21.974;-46.800;2024-02-26T04:24:19;2.90;;;2.60;;
49590;SDS011;35496;-21.974;-46.800;2024-02-26T04:26:45;4.05;;;2.58;;
49590;SDS011;35496;-21.974;-46.800;2024-02-26T04:29:12;3.42;;;2.90;;
49590;SDS011;35496;-21.974;-46.800;2024-02-26T04:31:39;4.32;;;2.55;;
49590;SDS011;35496;-21.974;-46.800;2024-02-26T04:34:05;4.28;;;2.58;;
49590;SDS011;35496;-21.974;-46.800;2024-02-26T04:36:32;2.97;;;2.47;;
49590;SDS011;35496;-21.974;-46.800;2024-02-26T04:38:58;4.93;;;3.03;;
49590;SDS011;35496;-21.974;-46.800;2024-02-26T04:41:25;3.75;;;2.88;;
49590;SDS011;35496;-21.974;-46.800;2024-02-26T04:43:52;3.58;;;2.80;;
49590;SDS011;35496;-21.974;-46.800;2024-02-26T04:46:18;2.70;;;2.45;;
49590;SDS011;35496;-21.974;-46.800;2024-02-26T04:48:47;2.75;;;2.47;;
49590;SDS011;35496;-21.974;-46.800;2024-02-26T04:51:14;2.72;;;2.53;;
49590;SDS011;35496;-21.974;-46.800;2024-02-26T04:53:40;3.00;;;2.13;;
49590;SDS011;35496;-21.974;-46.800;2024-02-26T04:56:07;2.60;;;2.35;;
49590;SDS011;35496;-21.974;-46.800;2024-02-26T04:58:33;3.22;;;2.42;;
49590;SDS011;35496;-21.974;-46.800;2024-02-26T05:01:00;3.42;;;3.13;;
49590;SDS011;35496;-21.974;-46.800;2024-02-26T05:03:27;4.82;;;2.30;;
49590;SDS011;35496;-21.974;-46.800;2024-02-26T05:05:53;3.28;;;2.53;;
49590;SDS011;35496;-21.974;-46.800;2024-02-26T05:08:20;2.38;;;2.17;;
49590;SDS011;35496;-21.974;-46.800;2024-02-26T05:10:47;2.85;;;2.63;;
49590;SDS011;35496;-21.974;-46.800;2024-02-26T05:13:13;2.97;;;2.75;;
49590;SDS011;35496;-21.974;-46.800;2024-02-26T05:15:41;3.42;;;2.72;;
49590;SDS011;35496;-21.974;-46.800;2024-02-26T05:18:08;4.78;;;2.60;;
49590;SDS011;35496;-21.974;-46.800;2024-02-26T05:20:35;2.50;;;2.28;;
49590;SDS011;35496;-21.974;-46.800;2024-02-26T05:23:03;4.68;;;2.55;;
49590;SDS011;35496;-21.974;-46.800;2024-02-26T05:25:30;2.70;;;2.45;;
49590;SDS011;35496;-21.974;-46.800;2024-02-26T05:27:56;3.10;;;2.28;;
49590;SDS011;35496;-21.974;-46.800;2024-02-26T05:30:23;2.65;;;1.88;;
49590;SDS011;35496;-21.974;-46.800;2024-02-26T05:32:49;5.35;;;1.80;;
49590;SDS011;35496;-21.974;-46.800;2024-02-26T05:35:16;11.32;;;2.78;;
49590;SDS011;35496;-21.974;-46.800;2024-02-26T05:37:42;3.28;;;2.78;;
49590;SDS011;35496;-21.974;-46.800;2024-02-26T05:40:10;3.85;;;2.17;;
49590;SDS011;35496;-21.974;-46.800;2024-02-26T05:42:37;2.40;;;2.05;;
49590;SDS011;35496;-21.974;-46.800;2024-02-26T05:45:03;3.25;;;2.20;;
49590;SDS011;35496;-21.974;-46.800;2024-02-26T05:47:34;2.30;;;1.90;;
49590;SDS011;35496;-21.974;-46.800;2024-02-26T05:50:01;4.88;;;1.92;;
49590;SDS011;35496;-21.974;-46.800;2024-02-26T05:52:28;2.33;;;2.10;;
49590;SDS011;35496;-21.974;-46.800;2024-02-26T05:54:58;4.20;;;2.13;;
49590;SDS011;35496;-21.974;-46.800;2024-02-26T05:57:24;4.53;;;1.95;;
49590;SDS011;35496;-21.974;-46.800;2024-02-26T05:59:51;1.88;;;1.75;;
49590;SDS011;35496;-21.974;-46.800;2024-02-26T06:02:17;2.30;;;2.13;;
49590;SDS011;35496;-21.974;-46.800;2024-02-26T06:04:44;3.33;;;1.98;;
49590;SDS011;35496;-21.974;-46.800;2024-02-26T06:07:11;2.50;;;2.30;;
49590;SDS011;35496;-21.974;-46.800;2024-02-26T06:09:38;4.88;;;1.85;;
49590;SDS011;35496;-21.974;-46.800;2024-02-26T06:12:05;3.22;;;2.45;;
49590;SDS011;35496;-21.974;-46.800;2024-02-26T06:14:32;2.65;;;1.70;;
49590;SDS011;35496;-21.974;-46.800;2024-02-26T06:16:59;3.13;;;1.95;;
49590;SDS011;35496;-21.974;-46.800;2024-02-26T06:19:25;3.85;;;2.38;;
49590;SDS011;35496;-21.974;-46.800;2024-02-26T06:21:52;2.50;;;1.88;;
49590;SDS011;35496;-21.974;-46.800;2024-02-26T06:24:18;2.83;;;1.75;;
49590;SDS011;35496;-21.974;-46.800;2024-02-26T06:26:46;2.80;;;1.95;;
49590;SDS011;35496;-21.974;-46.800;2024-02-26T06:29:13;1.92;;;1.83;;
49590;SDS011;35496;-21.974;-46.800;2024-02-26T06:31:40;2.60;;;1.48;;
49590;SDS011;35496;-21.974;-46.800;2024-02-26T06:34:06;1.95;;;1.73;;
49590;SDS011;35496;-21.974;-46.800;2024-02-26T06:36:33;1.85;;;1.75;;
49590;SDS011;35496;-21.974;-46.800;2024-02-26T06:39:00;3.40;;;1.55;;
49590;SDS011;35496;-21.974;-46.800;2024-02-26T06:41:26;1.88;;;1.73;;
49590;SDS011;35496;-21.974;-46.800;2024-02-26T06:43:55;5.03;;;2.35;;
49590;SDS011;35496;-21.974;-46.800;2024-02-26T06:46:22;2.20;;;1.88;;
49590;SDS011;35496;-21.974;-46.800;2024-02-26T06:48:49;2.70;;;1.65;;
49590;SDS011;35496;-21.974;-46.800;2024-02-26T06:51:15;6.35;;;1.75;;
49590;SDS011;35496;-21.974;-46.800;2024-02-26T06:53:42;1.92;;;1.80;;
49590;SDS011;35496;-21.974;-46.800;2024-02-26T06:56:08;2.20;;;2.00;;
49590;SDS011;35496;-21.974;-46.800;2024-02-26T06:58:35;1.80;;;1.70;;
49590;SDS011;35496;-21.974;-46.800;2024-02-26T07:01:01;2.35;;;1.80;;
49590;SDS011;35496;-21.974;-46.800;2024-02-26T07:03:28;2.83;;;2.13;;
49590;SDS011;35496;-21.974;-46.800;2024-02-26T07:05:55;2.97;;;1.75;;
49590;SDS011;35496;-21.974;-46.800;2024-02-26T07:08:22;2.85;;;2.17;;
49590;SDS011;35496;-21.974;-46.800;2024-02-26T07:10:48;2.70;;;2.50;;
49590;SDS011;35496;-21.974;-46.800;2024-02-26T07:13:15;7.60;;;3.63;;
49590;SDS011;35496;-21.974;-46.800;2024-02-26T07:15:42;5.78;;;3.20;;
49590;SDS011;35496;-21.974;-46.800;2024-02-26T07:18:08;3.25;;;2.15;;
49590;SDS011;35496;-21.974;-46.800;2024-02-26T07:20:35;3.20;;;3.00;;
49590;SDS011;35496;-21.974;-46.800;2024-02-26T07:23:02;3.50;;;2.80;;
49590;SDS011;35496;-21.974;-46.800;2024-02-26T07:25:28;3.67;;;2.55;;
49590;SDS011;35496;-21.974;-46.800;2024-02-26T07:27:55;4.72;;;2.20;;
49590;SDS011;35496;-21.974;-46.800;2024-02-26T07:30:22;4.47;;;2.80;;
49590;SDS011;35496;-21.974;-46.800;2024-02-26T07:32:50;3.88;;;2.13;;
49590;SDS011;35496;-21.974;-46.800;2024-02-26T07:35:16;3.08;;;2.38;;
49590;SDS011;35496;-21.974;-46.800;2024-02-26T07:37:43;2.70;;;2.47;;
49590;SDS011;35496;-21.974;-46.800;2024-02-26T07:40:09;3.13;;;2.83;;
49590;SDS011;35496;-21.974;-46.800;2024-02-26T07:42:36;7.05;;;3.45;;
49590;SDS011;35496;-21.974;-46.800;2024-02-26T07:45:04;8.10;;;3.13;;
49590;SDS011;35496;-21.974;-46.800;2024-02-26T07:47:31;4.82;;;2.30;;
49590;SDS011;35496;-21.974;-46.800;2024-02-26T07:50:00;2.75;;;2.55;;
49590;SDS011;35496;-21.974;-46.800;2024-02-26T07:52:26;2.13;;;1.92;;
49590;SDS011;35496;-21.974;-46.800;2024-02-26T07:54:53;3.53;;;2.28;;
49590;SDS011;35496;-21.974;-46.800;2024-02-26T07:57:19;3.08;;;2.88;;
49590;SDS011;35496;-21.974;-46.800;2024-02-26T07:59:46;2.05;;;1.88;;
49590;SDS011;35496;-21.974;-46.800;2024-02-26T08:02:15;6.00;;;2.88;;
49590;SDS011;35496;-21.974;-46.800;2024-02-26T08:04:42;5.72;;;2.75;;
49590;SDS011;35496;-21.974;-46.800;2024-02-26T08:07:08;3.25;;;2.17;;
49590;SDS011;35496;-21.974;-46.800;2024-02-26T08:09:35;3.22;;;2.08;;
49590;SDS011;35496;-21.974;-46.800;2024-02-26T08:12:01;2.28;;;2.08;;
49590;SDS011;35496;-21.974;-46.800;2024-02-26T08:14:28;2.58;;;2.38;;
49590;SDS011;35496;-21.974;-46.800;2024-02-26T08:16:55;3.95;;;3.65;;
49590;SDS011;35496;-21.974;-46.800;2024-02-26T08:19:21;2.85;;;2.58;;
49590;SDS011;35496;-21.974;-46.800;2024-02-26T08:21:48;5.15;;;3.17;;
49590;SDS011;35496;-21.974;-46.800;2024-02-26T08:24:14;3.55;;;2.50;;
49590;SDS011;35496;-21.974;-46.800;2024-02-26T08:26:41;9.23;;;2.78;;
49590;SDS011;35496;-21.974;-46.800;2024-02-26T08:29:07;5.00;;;2.40;;
49590;SDS011;35496;-21.974;-46.800;2024-02-26T08:31:34;3.40;;;2.67;;
49590;SDS011;35496;-21.974;-46.800;2024-02-26T08:34:03;5.72;;;2.95;;
49590;SDS011;35496;-21.974;-46.800;2024-02-26T08:36:30;9.00;;;3.30;;
49590;SDS011;35496;-21.974;-46.800;2024-02-26T08:38:58;8.27;;;4.15;;
49590;SDS011;35496;-21.974;-46.800;2024-02-26T08:41:25;3.58;;;3.10;;
49590;SDS011;35496;-21.974;-46.800;2024-02-26T08:43:52;6.15;;;3.70;;
49590;SDS011;35496;-21.974;-46.800;2024-02-26T08:46:18;3.78;;;3.25;;
49590;SDS011;35496;-21.974;-46.800;2024-02-26T08:48:45;5.30;;;4.28;;
49590;SDS011;35496;-21.974;-46.800;2024-02-26T08:51:11;7.10;;;3.45;;
49590;SDS011;35496;-21.974;-46.800;2024-02-26T08:53:38;5.32;;;4.22;;
49590;SDS011;35496;-21.974;-46.800;2024-02-26T08:56:05;4.25;;;3.95;;
49590;SDS011;35496;-21.974;-46.800;2024-02-26T08:58:32;5.55;;;5.05;;
49590;SDS011;35496;-21.974;-46.800;2024-02-26T09:00:58;5.65;;;3.90;;
49590;SDS011;35496;-21.974;-46.800;2024-02-26T09:03:25;5.35;;;3.90;;
49590;SDS011;35496;-21.974;-46.800;2024-02-26T09:05:51;5.05;;;4.00;;
49590;SDS011;35496;-21.974;-46.800;2024-02-26T09:08:18;6.97;;;3.80;;
49590;SDS011;35496;-21.974;-46.800;2024-02-26T09:10:44;6.03;;;4.03;;
49590;SDS011;35496;-21.974;-46.800;2024-02-26T09:13:11;3.95;;;3.45;;
49590;SDS011;35496;-21.974;-46.800;2024-02-26T09:15:38;5.05;;;4.53;;
49590;SDS011;35496;-21.974;-46.800;2024-02-26T09:18:04;3.83;;;3.53;;
49590;SDS011;35496;-21.974;-46.800;2024-02-26T09:20:31;7.40;;;4.97;;
49590;SDS011;35496;-21.974;-46.800;2024-02-26T09:22:57;6.80;;;3.60;;
49590;SDS011;35496;-21.974;-46.800;2024-02-26T09:25:24;4.53;;;3.55;;
49590;SDS011;35496;-21.974;-46.800;2024-02-26T09:27:51;4.65;;;4.00;;
49590;SDS011;35496;-21.974;-46.800;2024-02-26T09:30:18;4.93;;;4.10;;
49590;SDS011;35496;-21.974;-46.800;2024-02-26T09:32:48;3.83;;;3.28;;
49590;SDS011;35496;-21.974;-46.800;2024-02-26T09:35:14;6.10;;;3.63;;
49590;SDS011;35496;-21.974;-46.800;2024-02-26T09:37:41;6.00;;;4.18;;
49590;SDS011;35496;-21.974;-46.800;2024-02-26T09:40:10;3.97;;;3.65;;
49590;SDS011;35496;-21.974;-46.800;2024-02-26T09:42:37;4.63;;;3.47;;
49590;SDS011;35496;-21.974;-46.800;2024-02-26T09:45:09;5.32;;;4.13;;
49590;SDS011;35496;-21.974;-46.800;2024-02-26T09:47:38;3.70;;;3.38;;
49590;SDS011;35496;-21.974;-46.800;2024-02-26T09:50:05;6.03;;;3.47;;
49590;SDS011;35496;-21.974;-46.800;2024-02-26T09:52:34;5.05;;;3.58;;
49590;SDS011;35496;-21.974;-46.800;2024-02-26T09:55:04;3.38;;;3.08;;
49590;SDS011;35496;-21.974;-46.800;2024-02-26T09:57:31;4.63;;;3.65;;
49590;SDS011;35496;-21.974;-46.800;2024-02-26T10:00:18;3.78;;;3.35;;
49590;SDS011;35496;-21.974;-46.800;2024-02-26T10:02:48;4.43;;;3.80;;
49590;SDS011;35496;-21.974;-46.800;2024-02-26T10:05:16;6.88;;;4.47;;
49590;SDS011;35496;-21.974;-46.800;2024-02-26T10:07:44;7.50;;;4.43;;
49590;SDS011;35496;-21.974;-46.800;2024-02-26T10:10:12;8.25;;;3.92;;
49590;SDS011;35496;-21.974;-46.800;2024-02-26T10:12:42;4.60;;;4.20;;
49590;SDS011;35496;-21.974;-46.800;2024-02-26T10:15:08;7.32;;;4.38;;
49590;SDS011;35496;-21.974;-46.800;2024-02-26T10:17:35;8.95;;;4.43;;
49590;SDS011;35496;-21.974;-46.800;2024-02-26T10:20:16;3.88;;;3.47;;
49590;SDS011;35496;-21.974;-46.800;2024-02-26T10:22:44;7.18;;;4.47;;
49590;SDS011;35496;-21.974;-46.800;2024-02-26T10:25:10;3.97;;;3.58;;
49590;SDS011;35496;-21.974;-46.800;2024-02-26T10:27:37;7.70;;;4.68;;
49590;SDS011;35496;-21.974;-46.800;2024-02-26T10:30:26;7.18;;;3.15;;
49590;SDS011;35496;-21.974;-46.800;2024-02-26T10:32:52;7.25;;;4.35;;
49590;SDS011;35496;-21.974;-46.800;2024-02-26T10:35:19;8.27;;;4.43;;
49590;SDS011;35496;-21.974;-46.800;2024-02-26T10:37:46;6.30;;;2.95;;
49590;SDS011;35496;-21.974;-46.800;2024-02-26T10:40:13;5.50;;;3.10;;
49590;SDS011;35496;-21.974;-46.800;2024-02-26T10:42:41;10.27;;;4.47;;
49590;SDS011;35496;-21.974;-46.800;2024-02-26T10:45:08;8.45;;;3.47;;
49590;SDS011;35496;-21.974;-46.800;2024-02-26T10:47:36;7.88;;;3.88;;
49590;SDS011;35496;-21.974;-46.800;2024-02-26T10:50:03;6.40;;;3.60;;
49590;SDS011;35496;-21.974;-46.800;2024-02-26T10:52:31;5.55;;;2.63;;
49590;SDS011;35496;-21.974;-46.800;2024-02-26T10:55:02;8.10;;;4.68;;
49590;SDS011;35496;-21.974;-46.800;2024-02-26T10:57:33;19.65;;;4.55;;
49590;SDS011;35496;-21.974;-46.800;2024-02-26T11:00:03;9.65;;;4.45;;
49590;SDS011;35496;-21.974;-46.800;2024-02-26T11:02:33;3.53;;;2.40;;
49590;SDS011;35496;-21.974;-46.800;2024-02-26T11:05:01;5.30;;;2.25;;
49590;SDS011;35496;-21.974;-46.800;2024-02-26T11:07:32;3.45;;;1.60;;
49590;SDS011;35496;-21.974;-46.800;2024-02-26T11:10:01;1.90;;;1.80;;
49590;SDS011;35496;-21.974;-46.800;2024-02-26T11:12:29;2.88;;;2.03;;
49590;SDS011;35496;-21.974;-46.800;2024-02-26T11:15:15;1.98;;;1.50;;
49590;SDS011;35496;-21.974;-46.800;2024-02-26T11:17:43;4.50;;;3.05;;
49590;SDS011;35496;-21.974;-46.800;2024-02-26T11:20:10;4.20;;;2.53;;
49590;SDS011;35496;-21.974;-46.800;2024-02-26T11:22:56;4.43;;;2.47;;
49590;SDS011;35496;-21.974;-46.800;2024-02-26T11:25:41;5.75;;;3.08;;
49590;SDS011;35496;-21.974;-46.800;2024-02-26T11:28:10;4.38;;;2.97;;
49590;SDS011;35496;-21.974;-46.800;2024-02-26T11:30:39;2.53;;;2.30;;
49590;SDS011;35496;-21.974;-46.800;2024-02-26T11:33:13;4.00;;;2.75;;
49590;SDS011;35496;-21.974;-46.800;2024-02-26T11:35:40;2.75;;;1.63;;
49590;SDS011;35496;-21.974;-46.800;2024-02-26T11:38:07;1.85;;;1.75;;
49590;SDS011;35496;-21.974;-46.800;2024-02-26T11:40:43;2.20;;;2.00;;
49590;SDS011;35496;-21.974;-46.800;2024-02-26T11:43:10;1.83;;;1.70;;
49590;SDS011;35496;-21.974;-46.800;2024-02-26T11:48:21;2.15;;;1.95;;
49590;SDS011;35496;-21.974;-46.800;2024-02-26T11:50:50;3.75;;;2.15;;
49590;SDS011;35496;-21.974;-46.800;2024-02-26T11:55:46;5.53;;;3.03;;
49590;SDS011;35496;-21.974;-46.800;2024-02-26T11:58:14;2.67;;;2.47;;
49590;SDS011;35496;-21.974;-46.800;2024-02-26T12:00:42;6.55;;;3.70;;
49590;SDS011;35496;-21.974;-46.800;2024-02-26T12:03:08;2.33;;;1.95;;
49590;SDS011;35496;-21.974;-46.800;2024-02-26T12:05:37;2.25;;;2.15;;
49590;SDS011;35496;-21.974;-46.800;2024-02-26T12:08:05;2.00;;;1.90;;
49590;SDS011;35496;-21.974;-46.800;2024-02-26T12:10:34;4.10;;;2.13;;
49590;SDS011;35496;-21.974;-46.800;2024-02-26T12:15:41;4.28;;;2.33;;
49590;SDS011;35496;-21.974;-46.800;2024-02-26T12:18:18;3.92;;;2.15;;
49590;SDS011;35496;-21.974;-46.800;2024-02-26T12:20:46;1.70;;;1.60;;
49590;SDS011;35496;-21.974;-46.800;2024-02-26T12:23:16;1.73;;;1.60;;
49590;SDS011;35496;-21.974;-46.800;2024-02-26T12:25:43;1.30;;;1.27;;
49590;SDS011;35496;-21.974;-46.800;2024-02-26T12:28:10;3.00;;;2.80;;
49590;SDS011;35496;-21.974;-46.800;2024-02-26T12:30:36;1.67;;;1.58;;
49590;SDS011;35496;-21.974;-46.800;2024-02-26T12:33:03;4.40;;;2.50;;
49590;SDS011;35496;-21.974;-46.800;2024-02-26T12:35:32;2.78;;;1.98;;
49590;SDS011;35496;-21.974;-46.800;2024-02-26T12:37:58;2.08;;;1.40;;
49590;SDS011;35496;-21.974;-46.800;2024-02-26T12:40:26;7.90;;;1.75;;
49590;SDS011;35496;-21.974;-46.800;2024-02-26T12:42:53;1.65;;;1.52;;
49590;SDS011;35496;-21.974;-46.800;2024-02-26T12:45:20;5.88;;;1.80;;
49590;SDS011;35496;-21.974;-46.800;2024-02-26T12:47:47;3.38;;;2.78;;
49590;SDS011;35496;-21.974;-46.800;2024-02-26T12:50:17;2.45;;;1.35;;
49590;SDS011;35496;-21.974;-46.800;2024-02-26T12:52:44;2.20;;;2.10;;
49590;SDS011;35496;-21.974;-46.800;2024-02-26T12:55:16;2.53;;;2.33;;
49590;SDS011;35496;-21.974;-46.800;2024-02-26T12:57:44;2.53;;;1.88;;
49590;SDS011;35496;-21.974;-46.800;2024-02-26T13:00:25;4.03;;;1.83;;
49590;SDS011;35496;-21.974;-46.800;2024-02-26T13:02:54;3.90;;;2.10;;
49590;SDS011;35496;-21.974;-46.800;2024-02-26T13:05:21;1.73;;;1.48;;
49590;SDS011;35496;-21.974;-46.800;2024-02-26T13:07:48;1.95;;;1.80;;
49590;SDS011;35496;-21.974;-46.800;2024-02-26T13:10:15;1.80;;;1.70;;
49590;SDS011;35496;-21.974;-46.800;2024-02-26T13:12:47;2.38;;;2.17;;
49590;SDS011;35496;-21.974;-46.800;2024-02-26T13:15:18;2.38;;;1.90;;
49590;SDS011;35496;-21.974;-46.800;2024-02-26T13:17:46;2.10;;;1.95;;
49590;SDS011;35496;-21.974;-46.800;2024-02-26T13:20:13;2.15;;;1.58;;
49590;SDS011;35496;-21.974;-46.800;2024-02-26T13:22:51;1.80;;;1.70;;
49590;SDS011;35496;-21.974;-46.800;2024-02-26T13:25:20;2.60;;;2.08;;
49590;SDS011;35496;-21.974;-46.800;2024-02-26T13:27:47;2.58;;;2.33;;
49590;SDS011;35496;-21.974;-46.800;2024-02-26T13:30:14;5.95;;;2.10;;
49590;SDS011;35496;-21.974;-46.800;2024-02-26T13:32:40;2.42;;;2.25;;
49590;SDS011;35496;-21.974;-46.800;2024-02-26T13:44:22;5.53;;;2.10;;
49590;SDS011;35496;-21.974;-46.800;2024-02-26T13:46:50;4.88;;;2.88;;
49590;SDS011;35496;-21.974;-46.800;2024-02-26T13:49:16;3.33;;;2.28;;
49590;SDS011;35496;-21.974;-46.800;2024-02-26T13:51:43;5.57;;;2.80;;
49590;SDS011;35496;-21.974;-46.800;2024-02-26T13:54:10;4.90;;;2.65;;
49590;SDS011;35496;-21.974;-46.800;2024-02-26T13:56:36;2.88;;;2.08;;
49590;SDS011;35496;-21.974;-46.800;2024-02-26T13:59:03;3.60;;;2.60;;
49590;SDS011;35496;-21.974;-46.800;2024-02-26T14:01:30;3.38;;;2.72;;
49590;SDS011;35496;-21.974;-46.800;2024-02-26T14:03:58;2.70;;;2.50;;
49590;SDS011;35496;-21.974;-46.800;2024-02-26T14:06:27;3.95;;;2.10;;
49590;SDS011;35496;-21.974;-46.800;2024-02-26T14:08:54;3.08;;;2.40;;
49590;SDS011;35496;-21.974;-46.800;2024-02-26T14:11:20;5.28;;;2.63;;
49590;SDS011;35496;-21.974;-46.800;2024-02-26T14:13:47;2.75;;;2.10;;
49590;SDS011;35496;-21.974;-46.800;2024-02-26T14:16:13;3.55;;;2.10;;
49590;SDS011;35496;-21.974;-46.800;2024-02-26T14:18:40;3.92;;;2.45;;
49590;SDS011;35496;-21.974;-46.800;2024-02-26T14:21:09;3.13;;;2.80;;
49590;SDS011;35496;-21.974;-46.800;2024-02-26T14:23:36;2.92;;;2.63;;
49590;SDS011;35496;-21.974;-46.800;2024-02-26T14:26:02;2.33;;;2.13;;
49590;SDS011;35496;-21.974;-46.800;2024-02-26T14:28:29;2.40;;;2.08;;
49590;SDS011;35496;-21.974;-46.800;2024-02-26T14:30:57;2.00;;;1.90;;
49590;SDS011;35496;-21.974;-46.800;2024-02-26T14:33:24;2.03;;;1.83;;